createdAt,value
2022-07-30T00:00:19.640Z,2.25
2022-07-30T00:02:52.072Z,2.10
2022-07-30T00:05:19.220Z,1.80
2022-07-30T00:07:46.342Z,1.83
2022-07-30T00:10:13.681Z,1.80
2022-07-30T00:12:40.949Z,1.73
2022-07-30T00:15:08.415Z,1.80
2022-07-30T00:17:35.603Z,1.98
2022-07-30T00:20:02.956Z,1.75
2022-07-30T00:22:31.111Z,1.70
2022-07-30T00:24:58.580Z,1.95
2022-07-30T00:27:25.751Z,1.58
2022-07-30T00:29:52.966Z,1.88
2022-07-30T00:32:20.117Z,1.70
2022-07-30T00:34:47.331Z,1.80
2022-07-30T00:37:14.518Z,1.60
2022-07-30T00:39:41.692Z,1.35
2022-07-30T00:42:09.083Z,1.70
2022-07-30T00:44:36.243Z,1.90
2022-07-30T00:47:08.291Z,1.60
2022-07-30T00:49:35.462Z,1.83
2022-07-30T00:52:02.633Z,1.80
2022-07-30T00:54:29.783Z,1.60
2022-07-30T00:56:57.032Z,1.65
2022-07-30T00:59:24.264Z,1.50
2022-07-30T01:01:51.471Z,1.73
2022-07-30T01:04:18.638Z,2.00
2022-07-30T01:06:45.879Z,1.80
2022-07-30T01:09:13.100Z,1.70
2022-07-30T01:11:43.044Z,2.03
2022-07-30T01:14:10.715Z,1.77
2022-07-30T01:16:38.967Z,1.73
2022-07-30T01:19:27.356Z,1.52
2022-07-30T01:21:57.424Z,1.85
2022-07-30T01:24:57.495Z,1.77
2022-07-30T01:27:25.768Z,1.50
2022-07-30T01:29:54.563Z,1.70
2022-07-30T01:32:23.048Z,1.50
2022-07-30T01:34:50.906Z,1.83
2022-07-30T01:37:18.433Z,1.92
2022-07-30T01:39:48.477Z,1.77
2022-07-30T01:42:15.746Z,1.77
2022-07-30T01:44:44.027Z,1.92
2022-07-30T01:47:12.026Z,1.80
2022-07-30T01:49:41.640Z,2.15
2022-07-30T01:52:09.138Z,1.80
2022-07-30T01:54:37.065Z,2.08
2022-07-30T01:57:06.117Z,2.20
2022-07-30T01:59:35.236Z,1.95
2022-07-30T02:02:02.421Z,1.83
2022-07-30T02:04:30.458Z,1.85
2022-07-30T02:06:58.512Z,2.10
2022-07-30T02:09:29.326Z,2.40
2022-07-30T02:12:16.026Z,2.10
2022-07-30T02:14:51.583Z,2.10
2022-07-30T02:17:21.741Z,1.80
2022-07-30T02:19:57.635Z,1.80
2022-07-30T02:22:25.831Z,2.00
2022-07-30T02:24:53.864Z,2.00
2022-07-30T02:27:24.952Z,2.03
2022-07-30T02:29:56.053Z,1.80
2022-07-30T02:32:23.990Z,2.03
2022-07-30T02:34:58.221Z,2.40
2022-07-30T02:37:43.002Z,2.17
2022-07-30T02:40:12.039Z,2.20
2022-07-30T02:42:39.689Z,2.25
2022-07-30T02:45:07.349Z,2.45
2022-07-30T02:47:35.297Z,2.30
2022-07-30T02:50:02.961Z,2.30
2022-07-30T02:52:30.946Z,2.25
2022-07-30T02:54:58.510Z,2.35
2022-07-30T02:57:26.476Z,2.15
2022-07-30T02:59:54.417Z,2.28
2022-07-30T03:02:26.504Z,2.45
2022-07-30T03:04:58.490Z,2.42
2022-07-30T03:07:25.964Z,2.40
2022-07-30T03:09:54.142Z,2.15
2022-07-30T03:12:22.423Z,2.35
2022-07-30T03:14:49.651Z,2.35
2022-07-30T03:17:17.887Z,2.70
2022-07-30T03:19:46.263Z,2.30
2022-07-30T03:22:15.709Z,2.72
2022-07-30T03:24:44.507Z,2.85
2022-07-30T03:27:11.710Z,2.60
2022-07-30T03:29:39.627Z,3.13
2022-07-30T03:32:07.339Z,2.78
2022-07-30T03:34:35.114Z,3.00
2022-07-30T03:37:05.400Z,2.67
2022-07-30T03:39:36.403Z,3.38
2022-07-30T03:42:07.351Z,2.83
2022-07-30T03:44:34.881Z,3.00
2022-07-30T03:47:03.649Z,2.80
2022-07-30T03:49:31.150Z,2.97
2022-07-30T03:51:58.386Z,3.08
2022-07-30T03:54:25.835Z,2.58
2022-07-30T03:56:53.007Z,3.30
2022-07-30T03:59:20.212Z,2.95
2022-07-30T04:01:47.434Z,2.97
2022-07-30T04:04:14.614Z,3.53
2022-07-30T04:06:43.030Z,3.20
2022-07-30T04:09:11.375Z,3.17
2022-07-30T04:11:41.370Z,2.92
2022-07-30T04:14:09.575Z,3.53
2022-07-30T04:16:55.844Z,3.17
2022-07-30T04:19:35.314Z,3.17
2022-07-30T04:22:03.738Z,3.28
2022-07-30T04:24:31.828Z,3.95
2022-07-30T04:27:02.259Z,3.13
2022-07-30T04:29:29.907Z,3.30
2022-07-30T04:31:57.212Z,3.15
2022-07-30T04:34:24.394Z,3.53
2022-07-30T04:36:51.545Z,3.30
2022-07-30T04:39:18.733Z,3.63
2022-07-30T04:41:48.912Z,3.67
2022-07-30T04:44:17.345Z,3.05
2022-07-30T04:46:44.530Z,3.10
2022-07-30T04:49:13.359Z,3.50
2022-07-30T04:51:41.450Z,2.85
2022-07-30T04:54:15.622Z,3.22
2022-07-30T04:56:53.783Z,3.30
2022-07-30T04:59:22.330Z,3.30
2022-07-30T05:01:50.141Z,3.22
2022-07-30T05:04:17.891Z,2.80
2022-07-30T05:06:46.528Z,3.10
2022-07-30T05:09:15.295Z,2.95
2022-07-30T05:11:42.484Z,3.20
2022-07-30T05:14:09.629Z,2.90
2022-07-30T05:16:36.807Z,2.80
2022-07-30T05:19:07.680Z,3.13
2022-07-30T05:21:35.139Z,2.90
2022-07-30T05:24:02.437Z,3.13
2022-07-30T05:26:29.622Z,3.80
2022-07-30T05:28:57.283Z,2.92
2022-07-30T05:31:25.353Z,3.10
2022-07-30T05:33:52.779Z,3.15
2022-07-30T05:36:20.484Z,3.25
2022-07-30T05:38:48.120Z,3.10
2022-07-30T05:41:25.120Z,3.53
2022-07-30T05:43:58.918Z,2.63
2022-07-30T05:46:26.231Z,2.85
2022-07-30T05:48:53.599Z,3.08
2022-07-30T05:51:22.177Z,3.03
2022-07-30T05:53:49.467Z,3.08
2022-07-30T05:56:16.625Z,3.03
2022-07-30T05:58:43.790Z,2.63
2022-07-30T06:01:11.999Z,2.90
2022-07-30T06:03:39.364Z,3.40
2022-07-30T06:06:07.884Z,3.00
2022-07-30T06:08:35.164Z,3.33
2022-07-30T06:11:02.343Z,3.45
2022-07-30T06:13:29.548Z,3.30
2022-07-30T06:15:56.847Z,3.30
2022-07-30T06:18:24.110Z,3.30
2022-07-30T06:20:54.752Z,3.03
2022-07-30T06:23:22.573Z,3.40
2022-07-30T06:25:50.148Z,3.40
2022-07-30T06:28:37.187Z,3.47
2022-07-30T06:31:05.840Z,2.85
2022-07-30T06:33:33.067Z,3.10
2022-07-30T06:36:00.226Z,3.25
2022-07-30T06:38:27.365Z,3.30
2022-07-30T06:40:57.136Z,3.05
2022-07-30T06:43:26.420Z,3.75
2022-07-30T06:45:53.583Z,3.40
2022-07-30T06:48:20.767Z,3.42
2022-07-30T06:50:48.037Z,3.17
2022-07-30T06:53:15.206Z,3.63
2022-07-30T06:55:42.326Z,4.15
2022-07-30T06:58:09.479Z,4.40
2022-07-30T07:00:36.611Z,3.80
2022-07-30T07:03:03.771Z,3.70
2022-07-30T07:05:30.982Z,4.13
2022-07-30T07:07:59.654Z,3.78
2022-07-30T07:10:27.584Z,4.03
2022-07-30T07:12:55.087Z,3.97
2022-07-30T07:15:36.122Z,3.78
2022-07-30T07:18:03.748Z,4.35
2022-07-30T07:20:30.996Z,4.60
2022-07-30T07:22:58.145Z,4.55
2022-07-30T07:25:25.486Z,4.50
2022-07-30T07:28:11.176Z,5.20
2022-07-30T07:30:39.826Z,4.28
2022-07-30T07:33:06.974Z,4.10
2022-07-30T07:35:48.801Z,4.10
2022-07-30T07:38:17.935Z,3.83
2022-07-30T07:40:45.122Z,4.35
2022-07-30T07:43:12.316Z,4.82
2022-07-30T07:45:39.661Z,4.22
2022-07-30T07:48:07.064Z,4.55
2022-07-30T07:50:34.283Z,4.95
2022-07-30T07:53:01.711Z,4.43
2022-07-30T07:55:28.891Z,4.03
2022-07-30T07:58:00.186Z,3.95
2022-07-30T08:00:27.362Z,3.70
2022-07-30T08:02:54.766Z,4.68
2022-07-30T08:05:22.018Z,3.85
2022-07-30T08:07:49.167Z,3.72
2022-07-30T08:10:16.490Z,3.30
2022-07-30T08:12:43.630Z,3.60
2022-07-30T08:15:11.043Z,3.20
2022-07-30T08:17:42.194Z,3.80
2022-07-30T08:20:11.260Z,4.22
2022-07-30T08:22:38.614Z,3.88
2022-07-30T08:25:06.302Z,4.10
2022-07-30T08:27:33.483Z,4.25
2022-07-30T08:30:04.396Z,3.70
2022-07-30T08:32:31.559Z,3.30
2022-07-30T08:34:58.700Z,3.92
2022-07-30T08:37:27.164Z,3.28
2022-07-30T08:39:54.326Z,3.05
2022-07-30T08:42:22.552Z,3.10
2022-07-30T08:44:50.266Z,2.70
2022-07-30T08:47:18.843Z,3.05
2022-07-30T08:49:49.703Z,2.75
2022-07-30T08:52:17.037Z,2.70
2022-07-30T08:54:44.861Z,3.20
2022-07-30T08:57:12.202Z,2.90
2022-07-30T08:59:59.628Z,2.70
2022-07-30T09:02:29.171Z,2.75
2022-07-30T09:04:57.034Z,2.80
2022-07-30T09:07:24.263Z,3.17
2022-07-30T09:09:51.491Z,2.88
2022-07-30T09:12:37.529Z,3.25
2022-07-30T09:15:06.255Z,2.67
2022-07-30T09:17:51.466Z,2.70
2022-07-30T09:20:19.603Z,3.10
2022-07-30T09:22:51.067Z,3.55
2022-07-30T09:25:33.203Z,3.58
2022-07-30T09:28:00.416Z,4.10
2022-07-30T09:30:32.189Z,3.47
2022-07-30T09:32:59.783Z,3.60
2022-07-30T09:35:26.935Z,3.40
2022-07-30T09:38:05.995Z,3.80
2022-07-30T09:40:33.758Z,3.13
2022-07-30T09:43:06.951Z,2.97
2022-07-30T09:45:35.195Z,3.40
2022-07-30T09:48:03.315Z,3.85
2022-07-30T09:50:31.011Z,3.10
2022-07-30T09:53:07.378Z,3.70
2022-07-30T09:55:35.753Z,2.90
2022-07-30T09:58:08.751Z,3.05
2022-07-30T10:00:36.654Z,2.90
2022-07-30T10:03:41.903Z,2.75
2022-07-30T10:06:11.215Z,2.85
2022-07-30T10:08:39.072Z,3.00
2022-07-30T10:11:09.675Z,3.17
2022-07-30T10:13:37.619Z,3.17
2022-07-30T10:16:05.680Z,2.75
2022-07-30T10:18:34.583Z,2.63
2022-07-30T10:21:05.533Z,2.58
2022-07-30T10:26:07.067Z,2.83
2022-07-30T10:28:39.515Z,2.70
2022-07-30T10:31:08.316Z,2.30
2022-07-30T10:33:54.409Z,3.40
2022-07-30T10:36:23.291Z,2.55
2022-07-30T10:38:52.701Z,2.00
2022-07-30T10:41:42.619Z,2.60
2022-07-30T10:44:31.328Z,2.42
2022-07-30T10:47:06.916Z,2.67
2022-07-30T10:49:41.488Z,2.40
2022-07-30T10:52:10.459Z,2.60
2022-07-30T10:54:39.575Z,2.50
2022-07-30T10:57:15.068Z,2.67
2022-07-30T10:59:50.618Z,2.50
2022-07-30T11:02:18.525Z,2.92
2022-07-30T11:04:47.016Z,2.50
2022-07-30T11:07:27.842Z,2.50
2022-07-30T11:10:08.857Z,2.22
2022-07-30T11:12:44.025Z,2.20
2022-07-30T11:15:19.183Z,2.30
2022-07-30T11:18:12.972Z,2.28
2022-07-30T11:20:43.141Z,2.33
2022-07-30T11:23:21.549Z,2.20
2022-07-30T11:25:51.786Z,2.22
2022-07-30T11:28:36.909Z,2.45
2022-07-30T11:31:10.062Z,2.60
2022-07-30T11:33:37.995Z,2.10
2022-07-30T11:36:11.770Z,2.83
2022-07-30T11:39:06.963Z,2.47
2022-07-30T11:44:20.542Z,2.53
2022-07-30T11:46:50.760Z,2.47
2022-07-30T11:49:19.274Z,2.05
2022-07-30T11:51:47.759Z,2.28
2022-07-30T11:54:15.298Z,2.17
2022-07-30T11:56:53.021Z,2.20
2022-07-30T11:59:20.215Z,2.78
2022-07-30T12:01:56.934Z,2.22
2022-07-30T12:04:24.551Z,2.60
2022-07-30T12:06:51.825Z,2.58
2022-07-30T12:09:22.287Z,2.63
2022-07-30T12:11:49.695Z,2.30
2022-07-30T12:14:16.959Z,2.50
2022-07-30T12:16:50.156Z,2.10
2022-07-30T12:19:17.323Z,2.50
2022-07-30T12:21:45.332Z,2.30
2022-07-30T12:24:14.804Z,2.00
2022-07-30T12:26:42.124Z,2.03
2022-07-30T12:29:15.884Z,2.10
2022-07-30T12:31:45.206Z,2.00
2022-07-30T12:34:23.199Z,2.08
2022-07-30T12:36:50.619Z,2.30
2022-07-30T12:39:22.347Z,2.13
2022-07-30T12:41:50.963Z,2.03
2022-07-30T12:44:36.538Z,2.20
2022-07-30T12:47:05.220Z,1.95
2022-07-30T12:49:36.725Z,1.77
2022-07-30T12:52:28.321Z,1.70
2022-07-30T12:55:02.830Z,1.90
2022-07-30T12:57:50.419Z,1.65
2022-07-30T13:00:17.772Z,1.70
2022-07-30T13:02:44.895Z,2.00
2022-07-30T13:05:12.257Z,1.90
2022-07-30T13:07:55.736Z,1.60
2022-07-30T13:10:26.140Z,1.73
2022-07-30T13:12:58.232Z,2.28
2022-07-30T13:15:25.567Z,2.78
2022-07-30T13:17:52.716Z,2.40
2022-07-30T13:20:20.942Z,2.30
2022-07-30T13:22:48.346Z,2.00
2022-07-30T13:25:15.594Z,4.45
2022-07-30T13:27:42.784Z,2.30
2022-07-30T13:30:10.400Z,2.30
2022-07-30T13:32:38.111Z,2.30
2022-07-30T13:35:05.443Z,2.47
2022-07-30T13:37:36.150Z,2.10
2022-07-30T13:40:06.127Z,1.80
2022-07-30T13:42:33.407Z,2.08
2022-07-30T13:45:00.723Z,2.28
2022-07-30T13:47:28.053Z,2.28
2022-07-30T13:49:55.562Z,2.10
2022-07-30T13:52:23.130Z,2.10
2022-07-30T13:54:52.369Z,2.30
2022-07-30T13:57:19.555Z,2.10
2022-07-30T13:59:46.731Z,2.15
2022-07-30T14:02:13.927Z,2.25
2022-07-30T14:04:41.111Z,2.05
2022-07-30T14:07:08.246Z,2.30
2022-07-30T14:09:36.173Z,2.20
2022-07-30T14:12:13.043Z,2.15
2022-07-30T14:14:40.204Z,2.08
2022-07-30T14:17:07.352Z,2.20
2022-07-30T14:19:34.498Z,1.90
2022-07-30T14:22:01.676Z,2.28
2022-07-30T14:24:28.806Z,2.15
2022-07-30T14:26:58.208Z,1.85
2022-07-30T14:29:26.296Z,2.10
2022-07-30T14:31:53.440Z,2.20
2022-07-30T14:34:20.723Z,2.28
2022-07-30T14:36:47.962Z,2.33
2022-07-30T14:39:15.199Z,2.35
2022-07-30T14:41:43.156Z,1.92
2022-07-30T14:44:12.357Z,2.38
2022-07-30T14:46:52.516Z,2.40
2022-07-30T14:49:20.297Z,2.40
2022-07-30T14:51:47.726Z,2.03
2022-07-30T14:54:14.930Z,1.88
2022-07-30T14:56:42.255Z,1.88
2022-07-30T14:59:09.488Z,1.95
2022-07-30T15:01:36.747Z,1.90
2022-07-30T15:04:04.124Z,1.73
2022-07-30T15:06:31.298Z,2.13
2022-07-30T15:08:58.496Z,2.10
2022-07-30T15:11:25.716Z,2.05
2022-07-30T15:13:52.948Z,1.85
2022-07-30T15:16:20.322Z,1.80
2022-07-30T15:18:47.600Z,2.15
2022-07-30T15:21:14.860Z,2.17
2022-07-30T15:23:42.154Z,2.10
2022-07-30T15:26:09.362Z,2.10
2022-07-30T15:28:36.719Z,2.20
2022-07-30T15:31:04.308Z,1.88
2022-07-30T15:33:36.694Z,2.28
2022-07-30T15:36:04.539Z,2.45
2022-07-30T15:38:31.702Z,1.83
2022-07-30T15:40:58.900Z,2.00
2022-07-30T15:43:26.129Z,1.92
2022-07-30T15:45:56.015Z,1.90
2022-07-30T15:48:26.770Z,1.77
2022-07-30T15:51:00.822Z,2.00
2022-07-30T15:53:28.075Z,2.30
2022-07-30T15:55:55.282Z,1.98
2022-07-30T15:58:22.457Z,1.70
2022-07-30T16:00:49.719Z,2.25
2022-07-30T16:03:16.893Z,2.13
2022-07-30T16:05:51.090Z,2.20
2022-07-30T16:08:19.127Z,2.08
2022-07-30T16:10:46.373Z,2.35
2022-07-30T16:13:13.570Z,2.03
2022-07-30T16:15:40.840Z,2.30
2022-07-30T16:18:08.303Z,1.80
2022-07-30T16:20:35.831Z,1.70
2022-07-30T16:23:03.142Z,2.42
2022-07-30T16:25:30.401Z,1.90
2022-07-30T16:27:57.840Z,2.40
2022-07-30T16:30:27.547Z,3.10
2022-07-30T16:32:56.432Z,2.15
2022-07-30T16:35:23.933Z,1.80
2022-07-30T16:37:51.279Z,2.17
2022-07-30T16:40:18.531Z,2.22
2022-07-30T16:42:45.756Z,4.05
2022-07-30T16:45:13.048Z,2.10
2022-07-30T16:47:40.255Z,1.85
2022-07-30T16:50:07.591Z,2.10
2022-07-30T16:52:35.195Z,2.10
2022-07-30T16:55:02.478Z,2.00
2022-07-30T16:57:29.607Z,2.63
2022-07-30T16:59:56.834Z,2.63
2022-07-30T17:02:24.109Z,2.40
2022-07-30T17:04:51.644Z,2.22
2022-07-30T17:07:18.906Z,3.10
2022-07-30T17:09:51.792Z,2.78
2022-07-30T17:12:19.704Z,2.72
2022-07-30T17:14:52.818Z,2.10
2022-07-30T17:17:20.017Z,1.90
2022-07-30T17:19:47.202Z,2.40
2022-07-30T17:22:14.338Z,1.90
2022-07-30T17:24:41.754Z,1.90
2022-07-30T17:27:08.920Z,1.88
2022-07-30T17:29:48.436Z,2.20
2022-07-30T17:32:17.246Z,2.40
2022-07-30T17:34:44.710Z,2.25
2022-07-30T17:37:11.943Z,2.40
2022-07-30T17:40:27.064Z,2.78
2022-07-30T17:42:26.301Z,2.90
2022-07-30T17:44:53.580Z,3.33
2022-07-30T17:47:21.034Z,2.63
2022-07-30T17:49:49.025Z,2.40
2022-07-30T17:52:16.239Z,2.42
2022-07-30T17:54:43.499Z,2.17
2022-07-30T17:57:12.920Z,2.60
2022-07-30T17:59:40.074Z,2.50
2022-07-30T18:02:07.566Z,3.00
2022-07-30T18:04:34.918Z,3.95
2022-07-30T18:07:02.690Z,3.88
2022-07-30T18:09:36.241Z,2.58
2022-07-30T18:12:07.949Z,2.17
2022-07-30T18:14:35.205Z,3.40
2022-07-30T18:17:03.626Z,7.05
2022-07-30T18:19:31.097Z,3.80
2022-07-30T18:21:58.293Z,3.60
2022-07-30T18:24:30.353Z,5.05
2022-07-30T18:26:57.766Z,6.40
2022-07-30T18:29:25.003Z,5.97
2022-07-30T18:31:52.189Z,3.80
2022-07-30T18:34:19.471Z,3.10
2022-07-30T18:36:51.071Z,3.67
2022-07-30T18:39:18.615Z,4.35
2022-07-30T18:41:45.790Z,6.32
2022-07-30T18:44:12.974Z,2.47
2022-07-30T18:46:40.391Z,3.70
2022-07-30T18:49:33.902Z,3.92
2022-07-30T18:51:55.557Z,3.47
2022-07-30T18:54:23.781Z,4.85
2022-07-30T18:56:50.956Z,3.60
2022-07-30T18:59:18.254Z,2.83
2022-07-30T19:01:45.599Z,2.60
2022-07-30T19:04:12.962Z,3.03
2022-07-30T19:06:40.759Z,2.83
2022-07-30T19:09:16.687Z,2.45
2022-07-30T19:11:45.182Z,2.60
2022-07-30T19:14:13.302Z,2.70
2022-07-30T19:16:41.768Z,2.35
2022-07-30T19:19:09.452Z,2.50
2022-07-30T19:21:36.658Z,2.55
2022-07-30T19:24:03.954Z,2.95
2022-07-30T19:26:31.215Z,3.05
2022-07-30T19:28:58.698Z,2.65
2022-07-30T19:31:26.676Z,2.70
2022-07-30T19:33:53.849Z,2.38
2022-07-30T19:36:21.147Z,3.05
2022-07-30T19:38:50.056Z,2.80
2022-07-30T19:41:17.262Z,2.70
2022-07-30T19:43:58.037Z,3.30
2022-07-30T19:46:25.997Z,2.97
2022-07-30T19:48:53.280Z,3.20
2022-07-30T19:51:25.199Z,3.33
2022-07-30T19:54:07.772Z,3.40
2022-07-30T19:56:37.908Z,3.33
2022-07-30T19:59:14.890Z,3.75
2022-07-30T20:01:43.271Z,3.03
2022-07-30T20:04:11.260Z,3.20
2022-07-30T20:06:41.067Z,3.42
2022-07-30T20:09:14.592Z,3.40
2022-07-30T20:11:43.413Z,3.55
2022-07-30T20:14:10.659Z,3.47
2022-07-30T20:16:37.849Z,3.60
2022-07-30T20:19:05.195Z,3.50
2022-07-30T20:21:54.202Z,3.60
2022-07-30T20:24:21.045Z,3.92
2022-07-30T20:26:48.367Z,3.78
2022-07-30T20:29:19.567Z,3.40
2022-07-30T20:31:49.863Z,3.15
2022-07-30T20:34:19.502Z,3.40
2022-07-30T20:36:47.789Z,3.00
2022-07-30T20:39:18.354Z,3.30
2022-07-30T20:41:47.035Z,3.55
2022-07-30T20:44:23.066Z,3.05
2022-07-30T20:46:50.446Z,3.60
2022-07-30T20:49:24.269Z,3.00
2022-07-30T20:52:01.922Z,2.80
2022-07-30T20:54:30.371Z,3.30
2022-07-30T20:56:57.885Z,3.10
2022-07-30T20:59:25.466Z,3.10
2022-07-30T21:01:52.626Z,3.33
2022-07-30T21:04:25.304Z,2.92
2022-07-30T21:06:53.048Z,3.20
2022-07-30T21:09:20.524Z,3.08
2022-07-30T21:11:50.471Z,3.33
2022-07-30T21:14:28.008Z,3.25
2022-07-30T21:16:56.307Z,2.95
2022-07-30T21:19:23.611Z,3.17
2022-07-30T21:21:51.584Z,3.55
2022-07-30T21:24:19.503Z,3.05
2022-07-30T21:26:51.146Z,3.20
2022-07-30T21:29:19.145Z,3.40
2022-07-30T21:32:08.729Z,3.22
2022-07-30T21:34:40.290Z,3.80
2022-07-30T21:37:09.349Z,3.80
2022-07-30T21:39:40.170Z,3.53
2022-07-30T21:42:07.922Z,3.20
2022-07-30T21:44:35.194Z,3.45
2022-07-30T21:47:02.407Z,3.75
2022-07-30T21:49:31.603Z,3.15
2022-07-30T21:51:58.924Z,3.40
2022-07-30T21:54:29.122Z,2.85
2022-07-30T21:56:58.610Z,3.15
2022-07-30T21:59:27.848Z,3.00
2022-07-30T22:01:55.426Z,2.92
2022-07-30T22:04:22.622Z,2.97
2022-07-30T22:06:49.985Z,3.08
2022-07-30T22:09:26.405Z,3.20
2022-07-30T22:12:02.091Z,3.10
2022-07-30T22:14:33.863Z,3.22
2022-07-30T22:17:04.404Z,2.67
2022-07-30T22:19:31.738Z,3.35
2022-07-30T22:22:02.031Z,3.15
2022-07-30T22:24:49.882Z,3.50
2022-07-30T22:27:17.066Z,2.88
2022-07-30T22:29:44.455Z,3.28
2022-07-30T22:32:12.187Z,3.83
2022-07-30T22:34:39.575Z,3.40
2022-07-30T22:37:13.321Z,3.58
2022-07-30T22:39:51.718Z,3.83
2022-07-30T22:42:20.224Z,3.22
2022-07-30T22:44:48.208Z,3.25
2022-07-30T22:47:20.950Z,3.50
2022-07-30T22:49:52.856Z,3.60
2022-07-30T22:52:24.794Z,3.43
2022-07-30T22:54:52.523Z,3.78
2022-07-30T22:57:22.927Z,3.20
2022-07-30T22:59:58.549Z,3.28
2022-07-30T23:02:28.016Z,3.53
2022-07-30T23:04:56.396Z,3.10
2022-07-30T23:07:23.729Z,3.95
2022-07-30T23:10:17.168Z,3.50
2022-07-30T23:12:46.277Z,3.58
2022-07-30T23:15:13.522Z,4.00
2022-07-30T23:17:40.715Z,3.60
2022-07-30T23:20:09.745Z,3.50
2022-07-30T23:22:37.056Z,3.40
2022-07-30T23:25:08.079Z,3.58
2022-07-30T23:27:35.312Z,3.50
2022-07-30T23:30:02.686Z,3.50
2022-07-30T23:32:30.144Z,3.28
2022-07-30T23:34:57.487Z,3.20
2022-07-30T23:37:24.753Z,3.35
2022-07-30T23:39:51.911Z,3.33
2022-07-30T23:42:19.083Z,3.30
2022-07-30T23:44:46.237Z,3.42
2022-07-30T23:47:13.368Z,3.35
2022-07-30T23:49:40.575Z,3.25
2022-07-30T23:52:07.725Z,3.60
2022-07-30T23:54:34.877Z,3.22
2022-07-30T23:57:02.213Z,3.25
2022-07-30T23:59:40.674Z,3.30
